Aurelia, North Dakota
Current Conditions -  °F | °C
As of 2:35 AM on Friday 28 Nov 2014 (Local Time) from K08D Reporting Station
Overcast Overcast  
Wind Chill: -5°   Ceiling: 300
Heat Index: 10°   Visibility: 10mi
Dew Point: 10°   Wind: 14mph
Humidity: 100%   Direction: 130°SE
Pressure: 29.81"   Gusts: NA
Location:  48.4598°N, 101.907°W
Report Text: K08D 280835Z AUTO 13012KT 10SM OVC003 M12/M12 A2981 RMK AO2
Loading
Personal Weather Stations






























Interactive Weather Map New forecast layout! Learn more

10-Day Weather Forecast

Advertisements
Track Severe Weather on mobile